createdAt,value
2023-05-07T00:01:13.320Z,19.26
2023-05-07T00:03:40.182Z,18.95
2023-05-07T00:06:07.091Z,19.26
2023-05-07T00:08:33.992Z,19.44
2023-05-07T00:11:00.375Z,19.24
2023-05-07T00:13:26.888Z,18.50
2023-05-07T00:15:53.382Z,19.26
2023-05-07T00:18:22.066Z,19.24
2023-05-07T00:20:48.431Z,19.26
2023-05-07T00:23:14.778Z,19.26
2023-05-07T00:25:41.148Z,18.58
2023-05-07T00:28:07.559Z,18.45
2023-05-07T00:30:33.899Z,19.01
2023-05-07T00:33:00.340Z,18.55
2023-05-07T00:35:27.004Z,19.04
2023-05-07T00:37:53.369Z,19.09
2023-05-07T00:40:19.806Z,18.74
2023-05-07T00:42:48.135Z,19.44
2023-05-07T00:45:15.074Z,19.41
2023-05-07T00:47:42.378Z,19.30
2023-05-07T00:50:10.984Z,18.62
2023-05-07T00:52:38.297Z,18.70
2023-05-07T00:55:07.126Z,19.31
2023-05-07T00:57:37.721Z,18.46
2023-05-07T01:00:05.902Z,19.18
2023-05-07T01:02:32.379Z,18.52
2023-05-07T01:04:58.995Z,19.21
2023-05-07T01:07:26.038Z,19.02
2023-05-07T01:09:52.722Z,18.42
2023-05-07T01:12:19.420Z,18.91
2023-05-07T01:14:46.006Z,18.51
2023-05-07T01:17:12.493Z,18.52
2023-05-07T01:19:38.871Z,19.12
2023-05-07T01:22:10.298Z,19.18
2023-05-07T01:24:38.130Z,19.07
2023-05-07T01:27:05.315Z,19.07
2023-05-07T01:29:31.751Z,18.39
2023-05-07T01:32:00.616Z,19.02
2023-05-07T01:34:31.189Z,18.11
2023-05-07T01:36:58.984Z,18.87
2023-05-07T01:39:26.873Z,19.02
2023-05-07T01:41:57.406Z,18.84
2023-05-07T01:44:25.224Z,18.84
2023-05-07T01:46:51.914Z,18.83
2023-05-07T01:49:18.990Z,18.38
2023-05-07T01:51:45.545Z,18.87
2023-05-07T01:54:12.391Z,18.60
2023-05-07T01:56:38.909Z,18.84
2023-05-07T01:59:06.051Z,18.84
2023-05-07T02:01:32.685Z,18.84
2023-05-07T02:03:59.144Z,18.76
2023-05-07T02:06:25.796Z,18.83
2023-05-07T02:08:52.306Z,18.74
2023-05-07T02:11:18.708Z,18.30
2023-05-07T02:13:45.147Z,18.76
2023-05-07T02:16:11.837Z,18.17
2023-05-07T02:18:38.593Z,18.45
2023-05-07T02:21:04.999Z,18.47
2023-05-07T02:23:31.416Z,18.24
2023-05-07T02:25:57.873Z,18.35
2023-05-07T02:28:24.684Z,18.40
2023-05-07T02:30:51.560Z,18.12
2023-05-07T02:33:17.987Z,18.04
2023-05-07T02:35:44.349Z,18.38
2023-05-07T02:38:11.752Z,18.32
2023-05-07T02:40:41.025Z,18.22
2023-05-07T02:43:07.504Z,18.20
2023-05-07T02:45:34.440Z,17.72
2023-05-07T02:48:00.937Z,17.23
2023-05-07T02:50:28.037Z,18.01
2023-05-07T02:52:54.795Z,18.41
2023-05-07T02:55:21.303Z,18.34
2023-05-07T02:57:47.741Z,18.27
2023-05-07T03:00:18.909Z,18.41
2023-05-07T03:02:46.194Z,18.52
2023-05-07T03:05:13.565Z,18.34
2023-05-07T03:07:40.028Z,18.27
2023-05-07T03:10:07.233Z,18.44
2023-05-07T03:12:33.745Z,17.96
2023-05-07T03:15:00.286Z,17.67
2023-05-07T03:17:26.748Z,18.27
2023-05-07T03:19:53.146Z,18.27
2023-05-07T03:22:19.636Z,17.70
2023-05-07T03:24:46.086Z,17.92
2023-05-07T03:27:12.507Z,18.04
2023-05-07T03:29:38.877Z,17.59
2023-05-07T03:32:05.487Z,18.21
2023-05-07T03:34:31.999Z,18.04
2023-05-07T03:36:58.337Z,17.46
2023-05-07T03:39:24.718Z,18.20
2023-05-07T03:41:51.203Z,18.01
2023-05-07T03:44:17.538Z,18.03
2023-05-07T03:46:44.055Z,17.57
2023-05-07T03:49:11.733Z,18.18
2023-05-07T03:51:38.118Z,17.44
2023-05-07T03:54:04.767Z,17.51
2023-05-07T03:56:32.068Z,18.21
2023-05-07T03:58:58.470Z,17.72
2023-05-07T04:01:25.230Z,18.13
2023-05-07T04:03:51.785Z,18.22
2023-05-07T04:06:18.516Z,17.83
2023-05-07T04:08:44.991Z,17.65
2023-05-07T04:11:11.385Z,18.24
2023-05-07T04:13:40.497Z,18.10
2023-05-07T04:16:07.340Z,18.22
2023-05-07T04:18:33.753Z,18.22
2023-05-07T04:21:00.182Z,17.66
2023-05-07T04:23:26.635Z,17.53
2023-05-07T04:25:52.985Z,17.83
2023-05-07T04:28:19.341Z,18.30
2023-05-07T04:30:45.773Z,17.64
2023-05-07T04:33:12.667Z,17.72
2023-05-07T04:35:39.135Z,18.09
2023-05-07T04:38:05.479Z,18.14
2023-05-07T04:40:31.982Z,18.41
2023-05-07T04:42:58.367Z,17.62
2023-05-07T04:45:24.759Z,17.62
2023-05-07T04:47:51.196Z,18.32
2023-05-07T04:50:18.652Z,18.25
2023-05-07T04:52:45.083Z,17.39
2023-05-07T04:55:11.727Z,17.78
2023-05-07T04:57:40.609Z,18.09
2023-05-07T05:00:09.606Z,18.26
2023-05-07T05:02:36.231Z,17.86
2023-05-07T05:05:03.294Z,17.88
2023-05-07T05:07:29.660Z,18.32
2023-05-07T05:09:56.519Z,18.24
2023-05-07T05:12:23.146Z,18.42
2023-05-07T05:14:49.591Z,17.85
2023-05-07T05:17:15.983Z,18.33
2023-05-07T05:19:42.393Z,18.05
2023-05-07T05:22:08.782Z,18.53
2023-05-07T05:24:35.098Z,18.57
2023-05-07T05:27:02.296Z,18.37
2023-05-07T05:29:28.698Z,18.83
2023-05-07T05:31:55.121Z,18.66
2023-05-07T05:34:22.719Z,18.26
2023-05-07T05:36:49.335Z,18.55
2023-05-07T05:39:15.801Z,18.27
2023-05-07T05:41:42.261Z,17.83
2023-05-07T05:44:08.717Z,18.17
2023-05-07T05:46:37.172Z,18.76
2023-05-07T05:49:03.732Z,18.62
2023-05-07T05:51:30.109Z,18.23
2023-05-07T05:53:56.473Z,18.92
2023-05-07T05:56:22.924Z,18.75
2023-05-07T05:58:49.380Z,18.42
2023-05-07T06:01:15.981Z,18.65
2023-05-07T06:03:42.336Z,18.43
2023-05-07T06:06:08.738Z,18.22
2023-05-07T06:08:35.218Z,18.86
2023-05-07T06:11:03.344Z,18.96
2023-05-07T06:13:29.829Z,18.46
2023-05-07T06:15:56.447Z,19.14
2023-05-07T06:18:23.137Z,19.01
2023-05-07T06:20:49.802Z,18.60
2023-05-07T06:23:17.947Z,18.49
2023-05-07T06:25:50.363Z,18.94
2023-05-07T06:28:17.320Z,19.44
2023-05-07T06:30:43.856Z,19.55
2023-05-07T06:33:10.617Z,19.25
2023-05-07T06:35:36.988Z,18.91
2023-05-07T06:38:03.346Z,19.38
2023-05-07T06:40:29.768Z,19.49
2023-05-07T06:42:56.099Z,18.98
2023-05-07T06:45:22.536Z,19.58
2023-05-07T06:47:48.950Z,19.68
2023-05-07T06:50:17.553Z,19.94
2023-05-07T06:52:44.179Z,19.29
2023-05-07T06:55:10.557Z,19.48
2023-05-07T06:57:37.213Z,19.97
2023-05-07T07:00:05.220Z,20.07
2023-05-07T07:02:31.616Z,20.04
2023-05-07T07:04:58.072Z,20.18
2023-05-07T07:07:24.454Z,20.24
2023-05-07T07:09:50.942Z,19.46
2023-05-07T07:12:18.532Z,20.30
2023-05-07T07:14:44.884Z,20.24
2023-05-07T07:17:11.463Z,20.06
2023-05-07T07:19:38.598Z,20.04
2023-05-07T07:22:04.985Z,20.17
2023-05-07T07:24:31.361Z,20.56
2023-05-07T07:26:57.791Z,20.18
2023-05-07T07:29:24.526Z,20.04
2023-05-07T07:31:51.060Z,20.49
2023-05-07T07:34:17.462Z,20.75
2023-05-07T07:36:46.739Z,20.88
2023-05-07T07:39:13.874Z,21.03
2023-05-07T07:41:40.364Z,20.51
2023-05-07T07:44:08.482Z,21.10
2023-05-07T07:46:35.562Z,21.17
2023-05-07T07:49:01.941Z,21.46
2023-05-07T07:51:28.383Z,21.46
2023-05-07T07:53:54.817Z,21.04
2023-05-07T07:56:21.665Z,21.70
2023-05-07T07:58:48.053Z,21.34
2023-05-07T08:01:14.507Z,21.03
2023-05-07T08:03:41.015Z,21.20
2023-05-07T08:06:08.578Z,21.87
2023-05-07T08:08:38.115Z,21.63
2023-05-07T08:11:04.568Z,21.33
2023-05-07T08:13:31.049Z,21.79
2023-05-07T08:16:01.017Z,22.23
2023-05-07T08:18:29.351Z,21.71
2023-05-07T08:20:58.593Z,22.13
2023-05-07T08:23:28.252Z,21.64
2023-05-07T08:25:54.726Z,22.19
2023-05-07T08:29:08.828Z,22.11
2023-05-07T08:31:11.547Z,21.58
2023-05-07T08:33:39.435Z,22.06
2023-05-07T08:36:27.172Z,22.33
2023-05-07T08:38:55.890Z,22.52
2023-05-07T08:41:22.498Z,22.45
2023-05-07T08:43:53.310Z,21.90
2023-05-07T08:46:21.846Z,22.39
2023-05-07T08:48:55.929Z,23.00
2023-05-07T08:51:22.809Z,22.76
2023-05-07T08:53:51.880Z,23.43
2023-05-07T08:56:20.442Z,23.15
2023-05-07T08:58:49.016Z,23.24
2023-05-07T09:01:16.876Z,23.57
2023-05-07T09:03:48.355Z,22.51
2023-05-07T09:06:15.144Z,23.31
2023-05-07T09:08:41.634Z,22.95
2023-05-07T09:11:08.131Z,23.07
2023-05-07T09:13:37.005Z,22.69
2023-05-07T09:16:12.632Z,22.88
2023-05-07T09:18:45.837Z,23.77
2023-05-07T09:21:15.805Z,23.71
2023-05-07T09:23:43.066Z,23.79
2023-05-07T09:26:15.642Z,23.76
2023-05-07T09:28:42.913Z,23.49
2023-05-07T09:31:10.672Z,23.58
2023-05-07T09:33:37.442Z,23.54
2023-05-07T09:36:05.937Z,24.25
2023-05-07T09:38:36.178Z,24.26
2023-05-07T09:41:12.518Z,24.28
2023-05-07T09:43:40.029Z,24.29
2023-05-07T09:46:13.324Z,23.92
2023-05-07T09:48:41.375Z,23.93
2023-05-07T09:51:19.246Z,23.84
2023-05-07T09:53:47.155Z,24.22
2023-05-07T09:56:15.817Z,23.73
2023-05-07T09:58:42.922Z,24.41
2023-05-07T10:01:11.707Z,23.93
2023-05-07T10:03:41.371Z,24.41
2023-05-07T10:06:10.310Z,24.42
2023-05-07T10:08:37.352Z,24.35
2023-05-07T10:11:06.008Z,23.81
2023-05-07T10:13:36.876Z,24.01
2023-05-07T10:16:06.614Z,24.02
2023-05-07T10:18:34.036Z,23.46
2023-05-07T10:21:18.727Z,24.07
2023-05-07T10:24:18.933Z,23.96
2023-05-07T10:26:49.400Z,23.81
2023-05-07T10:30:04.030Z,23.75
2023-05-07T10:32:41.785Z,24.16
2023-05-07T10:35:15.041Z,23.93
2023-05-07T10:37:42.265Z,24.25
2023-05-07T10:40:10.721Z,23.87
2023-05-07T10:42:37.170Z,23.88
2023-05-07T10:45:15.041Z,24.49
2023-05-07T10:48:29.654Z,24.74
2023-05-07T10:51:20.462Z,24.90
2023-05-07T10:53:46.853Z,24.82
2023-05-07T10:56:22.255Z,24.87
2023-05-07T10:58:48.601Z,25.06
2023-05-07T11:01:15.697Z,25.19
2023-05-07T11:04:14.022Z,25.29
2023-05-07T11:06:41.097Z,25.02
2023-05-07T11:09:08.660Z,24.75
2023-05-07T11:11:56.969Z,25.31
2023-05-07T11:14:45.488Z,25.43
2023-05-07T11:17:12.600Z,25.41
2023-05-07T11:19:52.882Z,25.50
2023-05-07T11:22:38.069Z,25.36
2023-05-07T11:25:04.865Z,25.19
2023-05-07T11:27:31.210Z,25.35
2023-05-07T11:29:57.564Z,25.19
2023-05-07T11:32:25.095Z,24.61
2023-05-07T11:34:56.013Z,25.38
2023-05-07T11:37:24.007Z,25.41
2023-05-07T11:39:55.424Z,24.93
2023-05-07T11:42:31.827Z,25.37
2023-05-07T11:44:58.770Z,25.32
2023-05-07T11:47:26.200Z,25.21
2023-05-07T11:49:54.556Z,25.37
2023-05-07T11:52:22.657Z,24.95
2023-05-07T11:54:53.803Z,25.05
2023-05-07T11:57:20.847Z,25.37
2023-05-07T11:59:50.244Z,25.06
2023-05-07T12:02:19.144Z,24.97
2023-05-07T12:04:45.717Z,24.61
2023-05-07T12:07:14.494Z,25.22
2023-05-07T12:09:42.259Z,24.92
2023-05-07T12:12:19.334Z,24.98
2023-05-07T12:14:46.819Z,25.05
2023-05-07T12:17:15.309Z,25.41
2023-05-07T12:19:45.497Z,25.57
2023-05-07T12:22:12.793Z,25.46
2023-05-07T12:24:58.471Z,25.49
2023-05-07T12:27:26.733Z,25.46
2023-05-07T12:29:53.218Z,25.41
2023-05-07T12:32:21.954Z,25.90
2023-05-07T12:34:51.765Z,25.78
2023-05-07T12:37:23.600Z,25.82
2023-05-07T12:40:03.952Z,25.79
2023-05-07T12:42:36.065Z,25.73
2023-05-07T12:45:17.328Z,25.37
2023-05-07T12:47:48.332Z,25.39
2023-05-07T12:50:16.586Z,24.99
2023-05-07T12:52:45.296Z,25.27
2023-05-07T12:55:15.771Z,25.25
2023-05-07T12:57:49.363Z,25.45
2023-05-07T13:00:16.240Z,25.29
2023-05-07T13:02:47.151Z,25.43
2023-05-07T13:05:14.150Z,25.32
2023-05-07T13:07:41.648Z,25.17
2023-05-07T13:10:08.693Z,25.14
2023-05-07T13:12:35.943Z,24.98
2023-05-07T13:15:02.324Z,25.19
2023-05-07T13:17:28.792Z,25.22
2023-05-07T13:19:55.174Z,25.07
2023-05-07T13:22:21.530Z,24.99
2023-05-07T13:24:48.060Z,24.98
2023-05-07T13:27:14.380Z,24.71
2023-05-07T13:29:40.754Z,24.64
2023-05-07T13:32:07.257Z,24.48
2023-05-07T13:34:33.697Z,24.23
2023-05-07T13:37:00.171Z,24.21
2023-05-07T13:39:26.785Z,23.91
2023-05-07T13:41:53.224Z,24.01
2023-05-07T13:44:19.911Z,23.55
2023-05-07T13:46:46.467Z,23.09
2023-05-07T13:49:13.811Z,22.47
2023-05-07T13:51:41.357Z,21.78
2023-05-07T13:54:07.710Z,21.47
2023-05-07T13:56:34.363Z,21.42
2023-05-07T13:59:01.158Z,21.57
2023-05-07T14:01:28.455Z,21.52
2023-05-07T14:03:55.073Z,21.47
2023-05-07T14:06:21.448Z,21.08
2023-05-07T14:08:47.843Z,21.08
2023-05-07T14:11:14.360Z,20.91
2023-05-07T14:13:41.050Z,20.46
2023-05-07T14:16:07.477Z,20.07
2023-05-07T14:18:35.366Z,20.22
2023-05-07T14:21:01.775Z,20.68
2023-05-07T14:23:28.715Z,20.48
2023-05-07T14:25:55.536Z,20.83
2023-05-07T14:28:23.462Z,20.67
2023-05-07T14:30:50.055Z,20.54
2023-05-07T14:33:16.727Z,20.05
2023-05-07T14:35:48.459Z,19.91
2023-05-07T14:38:15.599Z,19.79
2023-05-07T14:40:45.871Z,20.44
2023-05-07T14:43:12.463Z,19.84
2023-05-07T14:45:39.563Z,19.58
2023-05-07T14:48:06.671Z,20.67
2023-05-07T14:50:35.401Z,19.50
2023-05-07T14:53:02.013Z,19.89
2023-05-07T14:55:29.071Z,19.66
2023-05-07T14:57:56.812Z,20.22
2023-05-07T15:00:23.551Z,20.02
2023-05-07T15:02:50.367Z,20.50
2023-05-07T15:05:19.593Z,20.67
2023-05-07T15:07:47.294Z,20.44
2023-05-07T15:10:16.234Z,21.09
2023-05-07T15:12:42.738Z,21.06
2023-05-07T15:15:10.141Z,21.11
2023-05-07T15:17:38.670Z,21.16
2023-05-07T15:20:06.024Z,21.19
2023-05-07T15:22:40.040Z,21.65
2023-05-07T15:25:06.752Z,21.89
2023-05-07T15:27:39.917Z,21.40
2023-05-07T15:30:07.021Z,21.10
2023-05-07T15:32:35.696Z,21.31
2023-05-07T15:35:06.464Z,21.79
2023-05-07T15:37:36.187Z,22.31
2023-05-07T15:40:03.553Z,22.03
2023-05-07T15:42:30.137Z,22.41
2023-05-07T15:45:08.589Z,21.89
2023-05-07T15:47:37.899Z,22.42
2023-05-07T15:50:05.170Z,22.05
2023-05-07T15:52:52.052Z,22.34
2023-05-07T15:55:18.738Z,22.29
2023-05-07T15:57:52.344Z,22.86
2023-05-07T16:00:22.981Z,22.29
2023-05-07T16:02:52.033Z,22.43
2023-05-07T16:05:25.059Z,22.12
2023-05-07T16:07:52.756Z,23.08
2023-05-07T16:10:21.732Z,22.59
2023-05-07T16:12:48.316Z,22.31
2023-05-07T16:15:15.913Z,22.78
2023-05-07T16:17:42.766Z,23.01
2023-05-07T16:20:16.773Z,22.16
2023-05-07T16:22:53.734Z,22.92
2023-05-07T16:25:22.704Z,22.71
2023-05-07T16:27:49.279Z,23.06
2023-05-07T16:30:21.149Z,22.02
2023-05-07T16:32:50.266Z,22.67
2023-05-07T16:35:17.010Z,22.54
2023-05-07T16:37:43.591Z,22.15
2023-05-07T16:40:10.662Z,21.58
2023-05-07T16:42:37.361Z,22.15
2023-05-07T16:45:07.075Z,22.68
2023-05-07T16:47:33.503Z,21.87
2023-05-07T16:50:00.872Z,22.31
2023-05-07T16:52:29.726Z,21.90
2023-05-07T16:54:58.394Z,22.46
2023-05-07T16:57:25.428Z,21.99
2023-05-07T16:59:55.384Z,21.87
2023-05-07T17:02:22.047Z,22.33
2023-05-07T17:04:48.553Z,21.28
2023-05-07T17:07:18.206Z,21.38
2023-05-07T17:09:44.872Z,22.44
2023-05-07T17:12:11.266Z,22.51
2023-05-07T17:14:37.647Z,21.93
2023-05-07T17:17:04.113Z,22.00
2023-05-07T17:19:30.537Z,22.22
2023-05-07T17:21:57.493Z,22.20
2023-05-07T17:24:23.867Z,22.32
2023-05-07T17:26:50.339Z,22.04
2023-05-07T17:29:19.057Z,22.23
2023-05-07T17:31:46.421Z,22.18
2023-05-07T17:34:25.531Z,22.51
2023-05-07T17:36:58.984Z,22.44
2023-05-07T17:39:25.411Z,22.02
2023-05-07T17:41:51.866Z,21.83
2023-05-07T17:44:18.769Z,21.86
2023-05-07T17:46:47.964Z,22.02
2023-05-07T17:49:16.201Z,22.14
2023-05-07T17:51:53.288Z,21.74
2023-05-07T17:54:32.651Z,22.28
2023-05-07T17:57:01.294Z,21.88
2023-05-07T17:59:29.624Z,21.96
2023-05-07T18:01:56.091Z,21.25
2023-05-07T18:04:24.479Z,21.64
2023-05-07T18:06:50.991Z,21.63
2023-05-07T18:09:17.393Z,21.81
2023-05-07T18:11:43.813Z,21.72
2023-05-07T18:14:10.414Z,21.86
2023-05-07T18:16:36.911Z,21.23
2023-05-07T18:19:03.311Z,21.12
2023-05-07T18:21:29.816Z,21.72
2023-05-07T18:23:56.187Z,21.43
2023-05-07T18:26:22.574Z,21.40
2023-05-07T18:28:48.960Z,21.31
2023-05-07T18:31:15.572Z,21.49
2023-05-07T18:33:42.024Z,21.43
2023-05-07T18:36:08.404Z,21.18
2023-05-07T18:38:34.814Z,21.76
2023-05-07T18:41:05.297Z,21.06
2023-05-07T18:43:32.185Z,21.25
2023-05-07T18:45:58.653Z,20.96
2023-05-07T18:48:25.337Z,21.15
2023-05-07T18:50:51.760Z,20.60
2023-05-07T18:53:18.210Z,21.06
2023-05-07T18:55:49.435Z,20.83
2023-05-07T18:58:16.914Z,20.60
2023-05-07T19:00:43.277Z,20.92
2023-05-07T19:03:09.813Z,20.94
2023-05-07T19:05:36.255Z,21.01
2023-05-07T19:08:02.822Z,20.95
2023-05-07T19:10:29.187Z,21.24
2023-05-07T19:12:57.389Z,20.83
2023-05-07T19:15:23.802Z,20.90
2023-05-07T19:17:51.001Z,20.81
2023-05-07T19:20:17.802Z,20.89
2023-05-07T19:22:44.479Z,20.89
2023-05-07T19:25:13.295Z,20.66
2023-05-07T19:27:40.379Z,20.72
2023-05-07T19:30:09.121Z,21.33
2023-05-07T19:32:35.880Z,20.83
2023-05-07T19:35:02.681Z,20.01
2023-05-07T19:37:30.135Z,21.05
2023-05-07T19:39:56.778Z,21.10
2023-05-07T19:42:23.224Z,20.91
2023-05-07T19:44:49.609Z,21.38
2023-05-07T19:47:16.564Z,20.94
2023-05-07T19:49:42.910Z,20.86
2023-05-07T19:52:09.228Z,20.45
2023-05-07T19:54:35.834Z,20.39
2023-05-07T19:57:02.317Z,20.62
2023-05-07T19:59:28.805Z,20.06
2023-05-07T20:01:55.267Z,20.69
2023-05-07T20:04:21.692Z,20.26
2023-05-07T20:06:48.173Z,20.45
2023-05-07T20:09:14.679Z,20.85
2023-05-07T20:11:41.132Z,20.77
2023-05-07T20:14:09.466Z,20.43
2023-05-07T20:16:36.027Z,20.26
2023-05-07T20:19:02.640Z,20.74
2023-05-07T20:21:29.082Z,20.70
2023-05-07T20:23:55.704Z,19.72
2023-05-07T20:26:22.270Z,19.68
2023-05-07T20:28:48.596Z,20.50
2023-05-07T20:31:16.288Z,20.29
2023-05-07T20:33:42.708Z,20.63
2023-05-07T20:36:09.128Z,20.37
2023-05-07T20:38:35.646Z,20.23
2023-05-07T20:41:09.752Z,20.89
2023-05-07T20:43:37.540Z,20.92
2023-05-07T20:46:05.426Z,20.89
2023-05-07T20:48:31.912Z,20.61
2023-05-07T20:50:59.650Z,20.41
2023-05-07T20:53:29.593Z,19.71
2023-05-07T20:55:58.963Z,20.21
2023-05-07T20:58:27.774Z,20.30
2023-05-07T21:00:55.488Z,20.66
2023-05-07T21:03:25.263Z,20.31
2023-05-07T21:05:52.723Z,20.33
2023-05-07T21:08:19.753Z,20.27
2023-05-07T21:10:48.367Z,19.94
2023-05-07T21:13:15.142Z,20.16
2023-05-07T21:15:42.746Z,20.06
2023-05-07T21:18:12.541Z,20.39
2023-05-07T21:20:39.065Z,20.19
2023-05-07T21:23:06.060Z,20.18
2023-05-07T21:25:32.456Z,20.42
2023-05-07T21:27:59.225Z,19.93
2023-05-07T21:30:25.756Z,20.22
2023-05-07T21:32:54.254Z,20.28
2023-05-07T21:35:20.752Z,20.33
2023-05-07T21:37:47.228Z,20.38
2023-05-07T21:40:14.046Z,19.60
2023-05-07T21:42:40.733Z,20.26
2023-05-07T21:45:07.426Z,20.17
2023-05-07T21:47:33.855Z,19.89
2023-05-07T21:50:01.048Z,19.84
2023-05-07T21:52:27.758Z,19.59
2023-05-07T21:54:54.372Z,20.07
2023-05-07T21:57:21.076Z,19.96
2023-05-07T21:59:47.459Z,20.05
2023-05-07T22:02:13.953Z,19.77
2023-05-07T22:04:40.443Z,19.70
2023-05-07T22:07:06.979Z,20.06
2023-05-07T22:09:35.661Z,19.77
2023-05-07T22:12:03.291Z,19.61
2023-05-07T22:14:29.689Z,19.82
2023-05-07T22:16:56.307Z,20.06
2023-05-07T22:19:22.739Z,20.15
2023-05-07T22:21:49.235Z,20.17
2023-05-07T22:24:15.584Z,20.15
2023-05-07T22:26:42.051Z,19.98
2023-05-07T22:29:08.468Z,20.09
2023-05-07T22:31:34.887Z,20.01
2023-05-07T22:34:01.544Z,20.13
2023-05-07T22:36:28.060Z,20.12
2023-05-07T22:38:55.170Z,19.97
2023-05-07T22:41:21.567Z,19.92
2023-05-07T22:43:47.970Z,19.46
2023-05-07T22:46:14.478Z,19.46
2023-05-07T22:48:40.985Z,20.06
2023-05-07T22:51:13.896Z,19.87
2023-05-07T22:53:43.143Z,19.30
2023-05-07T22:56:09.766Z,19.18
2023-05-07T22:58:36.246Z,19.79
2023-05-07T23:01:02.728Z,19.92
2023-05-07T23:03:30.191Z,19.86
2023-05-07T23:05:56.600Z,19.93
2023-05-07T23:08:23.208Z,19.49
2023-05-07T23:10:52.450Z,18.95
2023-05-07T23:13:19.048Z,19.82
2023-05-07T23:15:45.504Z,19.66
2023-05-07T23:18:12.070Z,19.74
2023-05-07T23:20:41.250Z,19.69
2023-05-07T23:23:07.654Z,19.08
2023-05-07T23:25:34.039Z,19.75
2023-05-07T23:28:00.574Z,19.60
2023-05-07T23:30:26.964Z,19.73
2023-05-07T23:32:53.643Z,19.67
2023-05-07T23:35:20.265Z,19.62
2023-05-07T23:37:46.659Z,19.49
2023-05-07T23:40:13.410Z,19.21
2023-05-07T23:42:40.049Z,19.51
2023-05-07T23:45:06.777Z,19.63
2023-05-07T23:47:33.560Z,19.08
2023-05-07T23:49:59.963Z,19.30
2023-05-07T23:52:26.351Z,19.57
2023-05-07T23:54:52.843Z,19.26
2023-05-07T23:57:20.196Z,19.32
2023-05-07T23:59:46.609Z,19.54
